Time;durP1;ratioP1;P1;durP2;ratioP2;P2;SDS_P1;SDS_P2;PMS_P1;PMS_P2;Temp;Humidity;BMP_temperature;BMP_pressure;BME280_temperature;BME280_humidity;BME280_pressure;Samples;Min_cycle;Max_cycle;Signal;HPM_P1;HPM_P2
2023/08/03 00:02:09;;;;;;;2.33;1.50;;;;;;;;;;5013844;28;20048;-61
2023/08/03 00:04:34;;;;;;;2.13;1.35;;;;;;;;;;5014449;28;20061;-61
2023/08/03 00:07:00;;;;;;;1.60;1.50;;;;;;;;;;5014124;28;20036;-61
2023/08/03 00:09:25;;;;;;;2.72;1.30;;;;;;;;;;5014243;28;20030;-61
2023/08/03 00:11:51;;;;;;;2.78;1.60;;;;;;;;;;5014346;28;20049;-61
2023/08/03 00:14:16;;;;;;;1.35;1.25;;;;;;;;;;5014245;28;20025;-57
2023/08/03 00:16:43;;;;;;;1.45;1.30;;;;;;;;;;5014109;28;20033;-57
2023/08/03 00:19:08;;;;;;;1.40;1.30;;;;;;;;;;5014131;28;20032;-56
2023/08/03 00:21:33;;;;;;;1.50;1.38;;;;;;;;;;5014155;28;20112;-57
2023/08/03 00:23:59;;;;;;;1.50;1.40;;;;;;;;;;5014010;28;20037;-61
2023/08/03 00:26:24;;;;;;;1.45;1.35;;;;;;;;;;5013736;28;20081;-57
2023/08/03 00:28:50;;;;;;;2.05;1.30;;;;;;;;;;4996110;28;20071;-56
2023/08/03 00:31:15;;;;;;;1.58;1.30;;;;;;;;;;5013920;28;20540;-57
2023/08/03 00:33:40;;;;;;;1.45;1.35;;;;;;;;;;5013903;28;20442;-57
2023/08/03 00:36:06;;;;;;;1.30;1.20;;;;;;;;;;4996057;28;20034;-56
2023/08/03 00:38:31;;;;;;;1.52;1.40;;;;;;;;;;5017672;28;20121;-56
2023/08/03 00:40:56;;;;;;;1.60;1.48;;;;;;;;;;5018304;28;20068;-56
2023/08/03 00:43:22;;;;;;;2.10;1.90;;;;;;;;;;5017657;28;20080;-57
2023/08/03 00:45:48;;;;;;;1.65;1.48;;;;;;;;;;5017981;28;20470;-57
2023/08/03 00:48:13;;;;;;;1.50;1.40;;;;;;;;;;5000152;28;20029;-57
2023/08/03 00:50:39;;;;;;;1.30;1.20;;;;;;;;;;5017878;28;20069;-57
2023/08/03 00:53:04;;;;;;;1.77;1.20;;;;;;;;;;5017616;28;20045;-57
2023/08/03 00:55:30;;;;;;;3.38;1.38;;;;;;;;;;5018075;28;20104;-57
2023/08/03 00:57:55;;;;;;;1.80;1.42;;;;;;;;;;5017798;28;20362;-61
2023/08/03 01:00:20;;;;;;;1.88;1.33;;;;;;;;;;5017531;28;20505;-62
2023/08/03 01:02:46;;;;;;;3.08;1.38;;;;;;;;;;4999990;28;20014;-62
2023/08/03 01:05:12;;;;;;;1.65;1.40;;;;;;;;;;5017207;28;20044;-62
2023/08/03 01:07:37;;;;;;;1.52;1.40;;;;;;;;;;4999816;28;20468;-62
2023/08/03 01:10:03;;;;;;;1.52;1.35;;;;;;;;;;5000164;28;20046;-62
2023/08/03 01:12:28;;;;;;;2.78;1.30;;;;;;;;;;5017260;28;20089;-62
2023/08/03 01:14:54;;;;;;;1.65;1.25;;;;;;;;;;4999816;28;20036;-62
2023/08/03 01:17:20;;;;;;;1.30;1.20;;;;;;;;;;5017089;28;20057;-62
2023/08/03 01:19:45;;;;;;;2.20;1.23;;;;;;;;;;5017136;28;20063;-61
2023/08/03 01:22:12;;;;;;;1.48;1.38;;;;;;;;;;4999320;28;20568;-61
2023/08/03 01:24:37;;;;;;;1.95;1.30;;;;;;;;;;4999265;28;20474;-56
2023/08/03 01:27:03;;;;;;;2.20;1.48;;;;;;;;;;5017040;28;20033;-57
2023/08/03 01:29:28;;;;;;;1.25;0.88;;;;;;;;;;4999261;28;20040;-56
2023/08/03 01:31:56;;;;;;;2.08;1.40;;;;;;;;;;4999006;28;20026;-56
2023/08/03 01:34:27;;;;;;;1.48;1.38;;;;;;;;;;5017053;28;20081;-56
2023/08/03 01:36:53;;;;;;;1.73;1.40;;;;;;;;;;5016543;28;20041;-62
2023/08/03 01:39:20;;;;;;;1.35;1.27;;;;;;;;;;5016806;28;20025;-61
2023/08/03 01:41:46;;;;;;;1.50;1.40;;;;;;;;;;4998942;28;20382;-61
2023/08/03 01:44:17;;;;;;;1.60;1.50;;;;;;;;;;4999312;28;20036;-61
2023/08/03 01:46:42;;;;;;;1.27;1.27;;;;;;;;;;4999354;28;20482;-61
2023/08/03 01:49:08;;;;;;;3.20;1.20;;;;;;;;;;4999194;28;20026;-61
2023/08/03 01:51:33;;;;;;;1.58;1.48;;;;;;;;;;4998570;28;20057;-61
2023/08/03 01:53:58;;;;;;;1.50;1.40;;;;;;;;;;5016531;28;20033;-61
2023/08/03 01:56:24;;;;;;;1.60;1.30;;;;;;;;;;5016520;28;20029;-61
2023/08/03 01:58:49;;;;;;;1.67;1.42;;;;;;;;;;4999186;28;20022;-56
2023/08/03 02:01:15;;;;;;;1.33;1.30;;;;;;;;;;4999360;28;20097;-56
2023/08/03 02:03:40;;;;;;;1.50;1.40;;;;;;;;;;5016044;28;20030;-58
2023/08/03 02:06:06;;;;;;;2.08;1.40;;;;;;;;;;4998471;28;20379;-58
2023/08/03 02:08:31;;;;;;;1.52;1.42;;;;;;;;;;4998725;28;20033;-57
2023/08/03 02:10:56;;;;;;;1.30;1.20;;;;;;;;;;5016155;28;20466;-57
2023/08/03 02:13:22;;;;;;;2.75;1.42;;;;;;;;;;5016373;28;20474;-56
2023/08/03 02:15:47;;;;;;;1.60;1.50;;;;;;;;;;5016150;28;20117;-56
2023/08/03 02:18:13;;;;;;;2.00;1.52;;;;;;;;;;5016811;28;20021;-56
2023/08/03 02:20:38;;;;;;;1.30;1.20;;;;;;;;;;4998717;28;20032;-56
2023/08/03 02:23:04;;;;;;;2.28;1.30;;;;;;;;;;4998095;28;20039;-56
2023/08/03 02:25:29;;;;;;;1.55;1.45;;;;;;;;;;5016418;28;20044;-56
2023/08/03 02:27:55;;;;;;;1.25;1.15;;;;;;;;;;5016172;28;20025;-56
2023/08/03 02:30:21;;;;;;;1.02;1.00;;;;;;;;;;5015745;28;20022;-56
2023/08/03 02:32:47;;;;;;;1.50;1.30;;;;;;;;;;4998366;28;20524;-56
2023/08/03 02:35:12;;;;;;;1.30;1.20;;;;;;;;;;5015962;28;20029;-57
2023/08/03 02:37:38;;;;;;;1.13;1.05;;;;;;;;;;4998725;28;20022;-57
2023/08/03 02:40:11;;;;;;;1.75;1.05;;;;;;;;;;4998186;28;20381;-57
2023/08/03 02:42:36;;;;;;;1.20;1.10;;;;;;;;;;4982351;28;20037;-56
2023/08/03 02:45:02;;;;;;;1.42;1.33;;;;;;;;;;5015755;28;20021;-56
2023/08/03 02:47:29;;;;;;;3.28;1.60;;;;;;;;;;4998264;28;20034;-56
2023/08/03 02:49:55;;;;;;;1.70;1.45;;;;;;;;;;4998035;28;20482;-56
2023/08/03 02:52:20;;;;;;;1.88;1.60;;;;;;;;;;4997828;28;20133;-56
2023/08/03 02:54:47;;;;;;;1.42;1.33;;;;;;;;;;4998109;28;20021;-56
2023/08/03 02:57:14;;;;;;;1.17;1.17;;;;;;;;;;4998095;28;20077;-56
2023/08/03 02:59:40;;;;;;;1.67;1.58;;;;;;;;;;4997700;28;20504;-56
2023/08/03 03:02:06;;;;;;;2.45;1.48;;;;;;;;;;4997804;28;20026;-56
2023/08/03 03:04:36;;;;;;;1.80;1.70;;;;;;;;;;4998082;28;20034;-55
2023/08/03 03:07:01;;;;;;;1.58;1.48;;;;;;;;;;4997773;28;20029;-55
2023/08/03 03:09:27;;;;;;;2.17;1.55;;;;;;;;;;4997745;28;20113;-55
2023/08/03 03:11:55;;;;;;;2.20;1.70;;;;;;;;;;4997269;28;20121;-55
2023/08/03 03:14:24;;;;;;;1.85;1.60;;;;;;;;;;4997458;28;20359;-56
2023/08/03 03:16:50;;;;;;;4.30;1.85;;;;;;;;;;5015026;28;20032;-56
2023/08/03 03:19:17;;;;;;;1.63;1.52;;;;;;;;;;4997093;28;20045;-56
2023/08/03 03:21:43;;;;;;;1.40;1.30;;;;;;;;;;4997015;28;20393;-55
2023/08/03 03:24:09;;;;;;;1.50;1.38;;;;;;;;;;5015337;28;20036;-56
2023/08/03 03:26:34;;;;;;;1.77;1.58;;;;;;;;;;5014713;28;20474;-56
2023/08/03 03:29:00;;;;;;;1.77;1.63;;;;;;;;;;5014902;28;20370;-56
2023/08/03 03:31:29;;;;;;;3.15;1.35;;;;;;;;;;4996954;28;20069;-56
2023/08/03 03:33:57;;;;;;;1.85;1.40;;;;;;;;;;4997510;28;20033;-56
2023/08/03 03:36:22;;;;;;;1.58;1.48;;;;;;;;;;4997307;28;20462;-56
2023/08/03 03:38:48;;;;;;;2.08;1.60;;;;;;;;;;4997310;28;20084;-57
2023/08/03 03:41:13;;;;;;;2.38;1.40;;;;;;;;;;4981093;28;20018;-57
2023/08/03 03:43:43;;;;;;;2.75;1.50;;;;;;;;;;4997080;28;20475;-56
2023/08/03 03:46:08;;;;;;;3.13;1.33;;;;;;;;;;5014845;28;20101;-56
2023/08/03 03:48:35;;;;;;;2.08;1.30;;;;;;;;;;4996642;28;20038;-56
2023/08/03 03:51:03;;;;;;;1.10;1.10;;;;;;;;;;4996523;28;20096;-62
2023/08/03 03:53:29;;;;;;;0.50;0.50;;;;;;;;;;4996680;28;20041;-61
2023/08/03 03:55:56;;;;;;;0.82;0.82;;;;;;;;;;4997255;28;20022;-62
2023/08/03 03:58:23;;;;;;;2.95;0.90;;;;;;;;;;4996829;28;20026;-57
2023/08/03 04:00:48;;;;;;;0.70;0.70;;;;;;;;;;4995898;28;20381;-56
2023/08/03 04:03:14;;;;;;;2.83;1.13;;;;;;;;;;4994776;28;20068;-57
2023/08/03 04:05:40;;;;;;;0.93;0.93;;;;;;;;;;5013841;28;20040;-61
2023/08/03 04:08:06;;;;;;;4.03;1.65;;;;;;;;;;5012949;28;20532;-60
2023/08/03 04:10:35;;;;;;;1.85;1.48;;;;;;;;;;5013036;28;20038;-61
2023/08/03 04:13:01;;;;;;;2.55;1.17;;;;;;;;;;5013688;28;20018;-61
2023/08/03 04:15:26;;;;;;;1.42;1.33;;;;;;;;;;5014260;28;20033;-61
2023/08/03 04:17:51;;;;;;;1.80;1.30;;;;;;;;;;5013770;28;20037;-61
2023/08/03 04:20:23;;;;;;;1.42;1.33;;;;;;;;;;5012726;28;20022;-61
2023/08/03 04:22:48;;;;;;;3.00;1.33;;;;;;;;;;4995990;28;20037;-56
2023/08/03 04:25:16;;;;;;;2.55;1.75;;;;;;;;;;4996153;28;20021;-61
2023/08/03 04:27:46;;;;;;;1.80;1.70;;;;;;;;;;4996211;28;20026;-61
2023/08/03 04:30:14;;;;;;;1.83;1.42;;;;;;;;;;4995298;28;20267;-64
2023/08/03 04:32:40;;;;;;;1.60;1.50;;;;;;;;;;4979938;28;20089;-64
2023/08/03 04:35:07;;;;;;;2.17;1.73;;;;;;;;;;4995819;28;20504;-64
2023/08/03 04:37:33;;;;;;;1.80;1.60;;;;;;;;;;4996591;28;20520;-64
2023/08/03 04:39:59;;;;;;;1.58;1.48;;;;;;;;;;4996418;28;20030;-64
2023/08/03 04:42:25;;;;;;;2.45;1.50;;;;;;;;;;4996265;28;20026;-63
2023/08/03 04:44:50;;;;;;;1.63;1.52;;;;;;;;;;4996196;28;20030;-64
2023/08/03 04:47:17;;;;;;;3.58;1.50;;;;;;;;;;5012759;28;20034;-64
2023/08/03 04:49:45;;;;;;;2.50;1.38;;;;;;;;;;4996395;28;20037;-64
2023/08/03 04:52:11;;;;;;;1.70;1.48;;;;;;;;;;5025790;28;20069;-64
2023/08/03 04:54:37;;;;;;;1.63;1.25;;;;;;;;;;5015730;28;20053;-64
2023/08/03 04:57:03;;;;;;;1.58;1.38;;;;;;;;;;5015777;28;20028;-64
2023/08/03 04:59:32;;;;;;;2.00;1.35;;;;;;;;;;5015845;28;20077;-64
2023/08/03 05:01:59;;;;;;;1.80;1.70;;;;;;;;;;5015758;28;20033;-64
2023/08/03 05:04:27;;;;;;;1.90;1.52;;;;;;;;;;4979566;28;20030;-60
2023/08/03 05:06:56;;;;;;;1.45;1.38;;;;;;;;;;5013438;28;20381;-60
2023/08/03 05:09:21;;;;;;;2.53;1.60;;;;;;;;;;5013717;28;20034;-60
2023/08/03 05:11:48;;;;;;;2.00;1.42;;;;;;;;;;5013877;28;20030;-60
2023/08/03 05:14:13;;;;;;;1.75;1.65;;;;;;;;;;5013626;28;20018;-60
2023/08/03 05:16:39;;;;;;;1.92;1.83;;;;;;;;;;4995641;28;20026;-60
2023/08/03 05:19:04;;;;;;;1.70;1.60;;;;;;;;;;4996299;28;20033;-60
2023/08/03 05:21:29;;;;;;;1.60;1.50;;;;;;;;;;5013655;28;20038;-60
2023/08/03 05:23:55;;;;;;;1.73;1.63;;;;;;;;;;5015651;28;20036;-60
2023/08/03 05:26:20;;;;;;;1.65;1.55;;;;;;;;;;5015654;28;20385;-60
2023/08/03 05:28:46;;;;;;;1.77;1.55;;;;;;;;;;4999048;28;20029;-62
2023/08/03 05:31:11;;;;;;;1.85;1.58;;;;;;;;;;5016394;28;20038;-62
2023/08/03 05:33:36;;;;;;;2.65;1.67;;;;;;;;;;5017097;28;20030;-62
2023/08/03 05:36:02;;;;;;;3.78;1.80;;;;;;;;;;5016765;28;20113;-65
2023/08/03 05:38:28;;;;;;;2.90;1.80;;;;;;;;;;5017056;28;20108;-65
2023/08/03 05:40:53;;;;;;;1.88;1.75;;;;;;;;;;4999105;28;20490;-65
2023/08/03 05:43:21;;;;;;;1.50;1.40;;;;;;;;;;4999146;28;20386;-65
2023/08/03 05:45:53;;;;;;;2.22;2.05;;;;;;;;;;5016855;28;20049;-65
2023/08/03 05:48:20;;;;;;;1.67;1.50;;;;;;;;;;4981894;28;20029;-65
2023/08/03 05:50:56;;;;;;;3.58;1.63;;;;;;;;;;4997287;28;20041;-65
2023/08/03 05:53:22;;;;;;;2.55;1.73;;;;;;;;;;5016285;28;20481;-65
2023/08/03 06:02:58;;;;;;;2.50;2.15;;;;;;;;;;5016419;28;20459;-65
2023/08/03 06:08:59;;;;;;;3.10;2.85;;;;;;;;;;5016100;28;20029;-65
2023/08/03 06:15:00;;;;;;;2.35;2.15;;;;;;;;;;5016227;28;20105;-64
2023/08/03 06:21:03;;;;;;;2.38;2.15;;;;;;;;;;5016069;28;20037;-65
2023/08/03 06:27:03;;;;;;;2.05;1.83;;;;;;;;;;5015709;28;20052;-64
2023/08/03 06:33:04;;;;;;;2.58;2.38;;;;;;;;;;5015600;28;20036;-65
2023/08/03 06:39:05;;;;;;;4.38;2.78;;;;;;;;;;5015462;28;20052;-64
2023/08/03 06:45:07;;;;;;;3.50;1.73;;;;;;;;;;5015580;28;20025;-64
2023/08/03 06:54:48;;;;;;;3.85;3.00;;;;;;;;;;5015428;28;20032;-64
2023/08/03 07:00:49;;;;;;;2.72;2.53;;;;;;;;;;5015275;28;20156;-64
2023/08/03 07:06:49;;;;;;;1.90;1.67;;;;;;;;;;5015183;28;20184;-65
2023/08/03 07:12:49;;;;;;;2.92;1.67;;;;;;;;;;5015134;28;20044;-65
2023/08/03 07:18:49;;;;;;;1.75;1.65;;;;;;;;;;5014992;28;20158;-64
2023/08/03 07:24:50;;;;;;;2.00;1.50;;;;;;;;;;5014634;28;20386;-64
2023/08/03 07:30:49;;;;;;;1.67;1.58;;;;;;;;;;5014719;28;20083;-64
2023/08/03 07:36:53;;;;;;;2.40;1.88;;;;;;;;;;5014688;28;20072;-64
2023/08/03 07:42:53;;;;;;;2.35;1.70;;;;;;;;;;5014592;28;20546;-65
2023/08/03 07:48:53;;;;;;;2.72;1.73;;;;;;;;;;5014473;28;20032;-65
2023/08/03 07:59:21;;;;;;;1.67;1.58;;;;;;;;;;5014423;28;20087;-65
2023/08/03 08:05:23;;;;;;;4.55;1.85;;;;;;;;;;5014289;28;20141;-65
2023/08/03 08:11:23;;;;;;;1.85;1.75;;;;;;;;;;5013853;28;20040;-64
2023/08/03 08:17:23;;;;;;;1.90;1.80;;;;;;;;;;5014123;28;20029;-64
2023/08/03 08:23:24;;;;;;;2.08;1.60;;;;;;;;;;5014047;28;20146;-64
2023/08/03 08:29:24;;;;;;;2.53;1.58;;;;;;;;;;5014013;28;20025;-64
2023/08/03 08:35:24;;;;;;;1.70;1.60;;;;;;;;;;5013977;28;20081;-60
2023/08/03 08:37:51;;;;;;;1.70;1.60;;;;;;;;;;5024975;23;20049;-60
2023/08/03 08:40:18;;;;;;;2.20;1.40;;;;;;;;;;5041784;23;20112;-61
2023/08/03 08:42:43;;;;;;;2.58;1.60;;;;;;;;;;5013449;28;20029;-60
2023/08/03 08:45:08;;;;;;;1.42;1.35;;;;;;;;;;5013281;28;20449;-60
2023/08/03 08:47:34;;;;;;;1.73;1.63;;;;;;;;;;4995634;28;20492;-60
2023/08/03 08:49:59;;;;;;;1.60;1.50;;;;;;;;;;5013293;28;20061;-60
2023/08/03 08:52:25;;;;;;;2.42;1.88;;;;;;;;;;5013160;28;20116;-60
2023/08/03 08:54:51;;;;;;;2.30;2.10;;;;;;;;;;5013134;28;20473;-60
2023/08/03 08:57:17;;;;;;;2.17;1.90;;;;;;;;;;5013136;28;20028;-60
2023/08/03 08:59:59;;;;;;;1.83;1.65;;;;;;;;;;5017050;28;20088;-60
2023/08/03 09:02:24;;;;;;;1.92;1.35;;;;;;;;;;5016940;28;20493;-60
2023/08/03 09:04:50;;;;;;;1.58;1.48;;;;;;;;;;5016880;28;20038;-60
2023/08/03 09:07:16;;;;;;;3.08;2.00;;;;;;;;;;5016809;28;20033;-60
2023/08/03 09:09:41;;;;;;;3.03;2.30;;;;;;;;;;5016872;28;20034;-60
2023/08/03 09:12:07;;;;;;;2.10;1.95;;;;;;;;;;5016696;28;20088;-60
2023/08/03 09:14:47;;;;;;;3.10;2.28;;;;;;;;;;5016735;28;20025;-60
2023/08/03 09:17:16;;;;;;;3.50;2.30;;;;;;;;;;5016474;28;20040;-60
2023/08/03 09:19:42;;;;;;;5.60;2.65;;;;;;;;;;5016694;28;20025;-60
2023/08/03 09:22:07;;;;;;;3.38;2.78;;;;;;;;;;4999110;28;20029;-61
2023/08/03 09:24:32;;;;;;;4.28;2.70;;;;;;;;;;5016480;28;20036;-60
2023/08/03 09:26:58;;;;;;;3.83;2.20;;;;;;;;;;5016517;28;20541;-60
2023/08/03 09:29:27;;;;;;;2.88;2.10;;;;;;;;;;5016482;28;20393;-60
2023/08/03 09:32:05;;;;;;;3.22;2.45;;;;;;;;;;4998784;28;20117;-60
2023/08/03 09:34:42;;;;;;;2.72;1.75;;;;;;;;;;4998721;28;20072;-61
2023/08/03 09:37:08;;;;;;;2.08;1.75;;;;;;;;;;5016404;28;20026;-60
2023/08/03 09:39:34;;;;;;;3.40;1.77;;;;;;;;;;4999156;28;20418;-60
2023/08/03 09:42:01;;;;;;;2.00;1.80;;;;;;;;;;5036079;28;20041;-60
2023/08/03 09:44:29;;;;;;;4.15;1.73;;;;;;;;;;5035895;28;20465;-60
2023/08/03 09:46:54;;;;;;;2.17;1.98;;;;;;;;;;5035917;28;20021;-60
2023/08/03 09:49:20;;;;;;;3.20;1.80;;;;;;;;;;5035849;28;20029;-60
2023/08/03 09:51:47;;;;;;;1.50;1.40;;;;;;;;;;5018028;28;20366;-60
2023/08/03 09:54:32;;;;;;;1.27;1.20;;;;;;;;;;5035774;28;20101;-60
2023/08/03 09:57:00;;;;;;;2.10;1.52;;;;;;;;;;4995070;28;20049;-60
2023/08/03 09:59:27;;;;;;;5.50;1.60;;;;;;;;;;5035695;28;20370;-60
2023/08/03 10:01:54;;;;;;;2.13;1.23;;;;;;;;;;5035570;28;20068;-60
2023/08/03 10:04:21;;;;;;;1.92;1.45;;;;;;;;;;5035553;28;20041;-60
2023/08/03 10:06:49;;;;;;;3.05;1.63;;;;;;;;;;5035592;28;20040;-60
2023/08/03 10:09:17;;;;;;;1.33;1.23;;;;;;;;;;5034291;28;20044;-60
2023/08/03 10:11:46;;;;;;;1.73;1.30;;;;;;;;;;5035533;28;20069;-60
2023/08/03 10:14:12;;;;;;;1.80;1.70;;;;;;;;;;5035416;28;20461;-60
2023/08/03 10:16:40;;;;;;;1.40;1.30;;;;;;;;;;5035390;28;20033;-60
2023/08/03 10:19:06;;;;;;;3.47;1.83;;;;;;;;;;5035333;28;20025;-60
2023/08/03 10:21:32;;;;;;;1.30;1.20;;;;;;;;;;5035275;28;20084;-60
2023/08/03 10:24:17;;;;;;;2.03;1.83;;;;;;;;;;5035250;28;20029;-60
2023/08/03 10:26:43;;;;;;;2.40;1.45;;;;;;;;;;5035231;28;20124;-60
2023/08/03 10:29:08;;;;;;;3.10;1.40;;;;;;;;;;5035125;28;20104;-60
2023/08/03 10:31:50;;;;;;;1.58;1.30;;;;;;;;;;5034947;28;20473;-60
2023/08/03 10:34:23;;;;;;;1.85;1.75;;;;;;;;;;5035121;28;20108;-60
2023/08/03 10:36:50;;;;;;;3.45;1.73;;;;;;;;;;5017626;28;20028;-60
2023/08/03 10:39:36;;;;;;;1.60;1.50;;;;;;;;;;5034967;28;20044;-60
2023/08/03 10:42:17;;;;;;;1.80;1.70;;;;;;;;;;5034761;28;20041;-60
2023/08/03 10:44:42;;;;;;;2.97;1.65;;;;;;;;;;5034862;28;20092;-60
2023/08/03 10:47:20;;;;;;;2.85;1.88;;;;;;;;;;5034795;28;20037;-60
2023/08/03 10:49:49;;;;;;;2.17;1.80;;;;;;;;;;5017070;28;20454;-60
2023/08/03 10:52:16;;;;;;;2.15;1.75;;;;;;;;;;5034670;28;20053;-60
2023/08/03 10:54:42;;;;;;;2.35;1.83;;;;;;;;;;5034669;28;20477;-60
2023/08/03 10:57:08;;;;;;;3.08;1.80;;;;;;;;;;5016866;28;20022;-60
2023/08/03 10:59:37;;;;;;;1.63;1.52;;;;;;;;;;5034530;28;20033;-60
2023/08/03 11:02:08;;;;;;;2.55;1.40;;;;;;;;;;5034512;28;20381;-60
2023/08/03 11:04:35;;;;;;;1.60;1.48;;;;;;;;;;5016811;28;20076;-60
2023/08/03 11:07:00;;;;;;;1.52;1.40;;;;;;;;;;5016771;28;20037;-60
2023/08/03 11:09:25;;;;;;;1.38;1.27;;;;;;;;;;5034330;28;20029;-60
2023/08/03 11:11:54;;;;;;;1.73;1.20;;;;;;;;;;5034185;28;20034;-60
2023/08/03 11:14:20;;;;;;;3.45;1.20;;;;;;;;;;5034282;28;20036;-60
2023/08/03 11:16:46;;;;;;;1.73;1.40;;;;;;;;;;5034218;28;20425;-60
2023/08/03 11:19:13;;;;;;;1.67;1.17;;;;;;;;;;5034134;28;20485;-60
2023/08/03 11:21:40;;;;;;;1.63;1.42;;;;;;;;;;5033817;28;20048;-60
2023/08/03 11:24:05;;;;;;;1.35;1.25;;;;;;;;;;5034064;28;20091;-60
2023/08/03 11:26:31;;;;;;;2.08;1.48;;;;;;;;;;5016336;28;20021;-61
2023/08/03 11:28:56;;;;;;;4.10;1.50;;;;;;;;;;5034072;28;20430;-60
2023/08/03 11:31:22;;;;;;;4.82;1.50;;;;;;;;;;5016297;28;20104;-60
2023/08/03 11:33:51;;;;;;;2.08;1.30;;;;;;;;;;5016254;28;20037;-60
2023/08/03 11:36:17;;;;;;;2.33;1.40;;;;;;;;;;5033890;28;20021;-60
2023/08/03 11:38:42;;;;;;;1.35;1.25;;;;;;;;;;5033860;28;20037;-60
2023/08/03 11:41:09;;;;;;;1.38;1.27;;;;;;;;;;5033613;28;20038;-60
2023/08/03 11:43:34;;;;;;;2.45;1.40;;;;;;;;;;5015985;28;20029;-60
2023/08/03 11:46:00;;;;;;;1.42;1.20;;;;;;;;;;5033745;28;20079;-60
2023/08/03 11:48:26;;;;;;;2.28;1.40;;;;;;;;;;5033662;28;20040;-60
2023/08/03 11:50:54;;;;;;;3.67;1.38;;;;;;;;;;5033548;28;20065;-60
2023/08/03 11:53:24;;;;;;;1.55;1.45;;;;;;;;;;5033561;28;20026;-60
2023/08/03 11:55:49;;;;;;;1.83;1.42;;;;;;;;;;5033603;28;20037;-60
2023/08/03 11:58:14;;;;;;;3.13;1.23;;;;;;;;;;4999495;28;20041;-60
2023/08/03 12:00:40;;;;;;;2.67;1.23;;;;;;;;;;5015767;28;20030;-60
2023/08/03 12:03:06;;;;;;;1.25;1.20;;;;;;;;;;5033450;28;20113;-60
2023/08/03 12:05:54;;;;;;;2.40;1.67;;;;;;;;;;5015774;28;20025;-60
2023/08/03 12:08:19;;;;;;;1.83;1.52;;;;;;;;;;5033422;28;20461;-60
2023/08/03 12:10:57;;;;;;;1.67;1.58;;;;;;;;;;5015931;28;20037;-60
2023/08/03 12:13:22;;;;;;;1.35;1.27;;;;;;;;;;5015633;28;20367;-60
2023/08/03 12:15:47;;;;;;;1.40;1.30;;;;;;;;;;5033296;28;20029;-60
2023/08/03 12:18:13;;;;;;;1.25;1.20;;;;;;;;;;5033241;28;20140;-60
2023/08/03 12:20:38;;;;;;;1.50;1.40;;;;;;;;;;5033233;28;20437;-60
2023/08/03 12:23:04;;;;;;;1.73;1.27;;;;;;;;;;5033144;28;20018;-60
2023/08/03 12:25:29;;;;;;;1.90;1.13;;;;;;;;;;5033676;28;20454;-60
2023/08/03 12:27:54;;;;;;;2.00;1.33;;;;;;;;;;5033763;28;20121;-60
2023/08/03 12:30:20;;;;;;;1.63;1.52;;;;;;;;;;5034154;28;20045;-60
2023/08/03 12:32:45;;;;;;;2.50;1.40;;;;;;;;;;5034196;28;20477;-60
2023/08/03 12:35:11;;;;;;;2.85;1.48;;;;;;;;;;5037550;28;20524;-61
2023/08/03 12:37:36;;;;;;;1.63;1.52;;;;;;;;;;5037779;28;20033;-60
2023/08/03 12:40:02;;;;;;;2.47;1.42;;;;;;;;;;5019696;28;20037;-60
2023/08/03 12:42:27;;;;;;;1.40;1.35;;;;;;;;;;5019690;28;20035;-60
2023/08/03 12:44:53;;;;;;;1.23;1.13;;;;;;;;;;5037441;28;20481;-60
2023/08/03 12:47:18;;;;;;;1.45;1.27;;;;;;;;;;5037340;28;20465;-60
2023/08/03 12:49:43;;;;;;;2.70;1.77;;;;;;;;;;5037463;28;20037;-60
2023/08/03 12:52:09;;;;;;;1.73;1.63;;;;;;;;;;5037369;28;20436;-60
2023/08/03 12:54:35;;;;;;;2.85;1.60;;;;;;;;;;5037211;28;20057;-60
2023/08/03 12:57:00;;;;;;;5.00;1.33;;;;;;;;;;5019448;28;20428;-60
2023/08/03 12:59:29;;;;;;;1.58;1.45;;;;;;;;;;5019245;28;20042;-60
2023/08/03 13:01:54;;;;;;;2.70;1.33;;;;;;;;;;5037513;28;20033;-60
2023/08/03 13:04:21;;;;;;;1.70;1.45;;;;;;;;;;5037838;28;20100;-60
2023/08/03 13:06:46;;;;;;;3.65;2.05;;;;;;;;;;5037350;28;20438;-60
2023/08/03 13:09:14;;;;;;;1.67;1.33;;;;;;;;;;5036952;28;20072;-60
2023/08/03 13:11:39;;;;;;;2.08;1.35;;;;;;;;;;5036703;28;20032;-60
2023/08/03 13:14:08;;;;;;;2.97;1.73;;;;;;;;;;5036950;28;20457;-60
2023/08/03 13:19:36;;;;;;;;;;;;;;;;;;5027115;23;20320;-64
2023/08/03 13:22:02;;;;;;;1.80;1.48;;;;;;;;;;5017521;28;19916;-64
2023/08/03 13:24:27;;;;;;;2.72;1.55;;;;;;;;;;5016914;28;20033;-64
2023/08/03 13:29:55;;;;;;;1.70;1.60;;;;;;;;;;5023628;23;20478;-64
2023/08/03 13:32:41;;;;;;;3.25;1.77;;;;;;;;;;5026241;23;20140;-64
2023/08/03 13:35:07;;;;;;;2.58;1.80;;;;;;;;;;5012267;28;20056;-60
2023/08/03 13:37:33;;;;;;;3.30;1.58;;;;;;;;;;4997949;28;20026;-64
2023/08/03 13:39:59;;;;;;;2.45;1.98;;;;;;;;;;5031220;28;20052;-64
2023/08/03 13:42:24;;;;;;;4.10;2.25;;;;;;;;;;5015937;28;20477;-60
2023/08/03 13:44:49;;;;;;;3.20;1.73;;;;;;;;;;5014893;28;20034;-64
2023/08/03 13:47:15;;;;;;;2.85;2.38;;;;;;;;;;5009922;28;20108;-60
2023/08/03 13:49:40;;;;;;;4.35;2.13;;;;;;;;;;5035617;28;20123;-60
2023/08/03 13:52:06;;;;;;;3.72;1.90;;;;;;;;;;5017073;28;20044;-60
2023/08/03 13:54:31;;;;;;;3.10;1.63;;;;;;;;;;5028801;28;20026;-60
2023/08/03 13:56:58;;;;;;;2.95;1.58;;;;;;;;;;5035106;28;20024;-60
2023/08/03 13:59:23;;;;;;;2.28;1.77;;;;;;;;;;5035722;28;20117;-60
2023/08/03 14:01:48;;;;;;;2.70;1.55;;;;;;;;;;5035379;28;20060;-60
2023/08/03 14:04:16;;;;;;;2.42;1.58;;;;;;;;;;5035757;28;20544;-60
2023/08/03 14:06:41;;;;;;;3.72;1.75;;;;;;;;;;5036307;28;20103;-60
2023/08/03 14:09:07;;;;;;;3.28;2.60;;;;;;;;;;5036170;28;20469;-60
2023/08/03 14:11:32;;;;;;;4.13;2.83;;;;;;;;;;5018165;28;20124;-60
2023/08/03 14:14:00;;;;;;;2.28;1.85;;;;;;;;;;5034925;28;20021;-60
2023/08/03 14:16:26;;;;;;;2.30;1.95;;;;;;;;;;5018103;28;20033;-60
2023/08/03 14:18:52;;;;;;;1.48;1.38;;;;;;;;;;5035208;28;20029;-60
2023/08/03 14:21:17;;;;;;;1.83;1.73;;;;;;;;;;5016866;28;20087;-60
2023/08/03 14:23:43;;;;;;;2.47;1.60;;;;;;;;;;5036286;28;20049;-60
2023/08/03 14:26:08;;;;;;;3.03;1.88;;;;;;;;;;5018501;28;20369;-60
2023/08/03 14:28:33;;;;;;;1.73;1.50;;;;;;;;;;5017099;28;20079;-60
2023/08/03 14:31:00;;;;;;;2.08;1.40;;;;;;;;;;5033398;28;20037;-60
2023/08/03 14:33:26;;;;;;;2.67;1.58;;;;;;;;;;5033269;28;20521;-60
2023/08/03 14:35:52;;;;;;;2.95;1.52;;;;;;;;;;5033627;28;20068;-60
2023/08/03 14:38:17;;;;;;;2.10;1.63;;;;;;;;;;5033509;28;20176;-60
2023/08/03 14:40:42;;;;;;;1.55;1.40;;;;;;;;;;5033363;28;20056;-60
2023/08/03 14:43:07;;;;;;;1.45;1.35;;;;;;;;;;5033215;28;20100;-60
2023/08/03 14:45:33;;;;;;;3.25;1.52;;;;;;;;;;5033254;28;20033;-60
2023/08/03 14:48:01;;;;;;;1.92;1.83;;;;;;;;;;5033208;28;20033;-60
2023/08/03 14:50:28;;;;;;;1.98;1.40;;;;;;;;;;5016233;28;20038;-60
2023/08/03 14:52:53;;;;;;;1.95;1.45;;;;;;;;;;5034148;28;20037;-60
2023/08/03 14:55:18;;;;;;;1.90;1.73;;;;;;;;;;5016640;28;20022;-60
2023/08/03 14:57:44;;;;;;;1.30;1.23;;;;;;;;;;5017263;28;20060;-60
2023/08/03 15:00:10;;;;;;;1.75;1.63;;;;;;;;;;5034936;28;20032;-60
2023/08/03 15:02:35;;;;;;;2.53;1.70;;;;;;;;;;5034792;28;20033;-60
2023/08/03 15:05:01;;;;;;;2.15;1.50;;;;;;;;;;5034999;28;20029;-60
2023/08/03 15:07:27;;;;;;;1.58;1.35;;;;;;;;;;5034776;28;20112;-60
2023/08/03 15:09:53;;;;;;;2.22;1.08;;;;;;;;;;5034755;28;20026;-60
2023/08/03 15:12:18;;;;;;;1.90;1.70;;;;;;;;;;5017091;28;20037;-60
2023/08/03 15:14:44;;;;;;;1.90;1.30;;;;;;;;;;5034710;28;20028;-60
2023/08/03 15:17:09;;;;;;;3.40;1.58;;;;;;;;;;5034505;28;20501;-60
2023/08/03 15:19:34;;;;;;;1.70;1.40;;;;;;;;;;5016874;28;20021;-60
2023/08/03 15:21:59;;;;;;;2.35;1.92;;;;;;;;;;5016797;28;20056;-60
2023/08/03 15:24:25;;;;;;;1.60;1.50;;;;;;;;;;5034386;28;20119;-60
2023/08/03 15:26:50;;;;;;;1.55;1.45;;;;;;;;;;5034498;28;20033;-60
2023/08/03 15:29:15;;;;;;;1.67;1.40;;;;;;;;;;5007855;28;20386;-60
2023/08/03 15:31:41;;;;;;;2.72;1.48;;;;;;;;;;4996692;28;20374;-60
2023/08/03 15:34:08;;;;;;;1.45;1.35;;;;;;;;;;5016284;28;20049;-60
2023/08/03 15:36:34;;;;;;;1.63;1.48;;;;;;;;;;4995413;28;20030;-60
2023/08/03 15:38:59;;;;;;;1.65;1.25;;;;;;;;;;5013026;28;20048;-60
2023/08/03 15:41:26;;;;;;;1.60;1.50;;;;;;;;;;5005198;28;20462;-60
2023/08/03 15:43:52;;;;;;;3.60;1.65;;;;;;;;;;4994457;28;20449;-60
2023/08/03 15:46:19;;;;;;;2.30;1.60;;;;;;;;;;4994222;28;20378;-60
2023/08/03 15:48:45;;;;;;;2.28;1.42;;;;;;;;;;4976820;28;20366;-60
2023/08/03 15:51:10;;;;;;;1.88;1.52;;;;;;;;;;4994122;28;20086;-60
2023/08/03 15:53:36;;;;;;;1.90;1.30;;;;;;;;;;4994281;28;20022;-60
2023/08/03 15:56:02;;;;;;;3.22;1.40;;;;;;;;;;4993899;28;20026;-60
2023/08/03 15:58:27;;;;;;;3.67;1.45;;;;;;;;;;4993967;28;20359;-60
2023/08/03 16:00:54;;;;;;;2.30;1.60;;;;;;;;;;4993588;28;20082;-60
2023/08/03 16:03:19;;;;;;;2.47;1.50;;;;;;;;;;4994192;28;20388;-60
2023/08/03 16:05:45;;;;;;;2.25;1.40;;;;;;;;;;4993959;28;20061;-60
2023/08/03 16:08:11;;;;;;;1.75;1.40;;;;;;;;;;4976344;28;20031;-60
2023/08/03 16:10:37;;;;;;;1.48;1.33;;;;;;;;;;4976309;28;20042;-60
2023/08/03 16:13:03;;;;;;;2.42;1.52;;;;;;;;;;4993575;28;20042;-60
2023/08/03 16:15:29;;;;;;;1.70;1.20;;;;;;;;;;4993231;28;20054;-60
2023/08/03 16:17:55;;;;;;;1.67;1.48;;;;;;;;;;4992957;28;20061;-60
2023/08/03 16:20:20;;;;;;;1.52;1.42;;;;;;;;;;4992027;28;20100;-60
2023/08/03 16:22:45;;;;;;;2.00;1.50;;;;;;;;;;4993855;28;20422;-60
2023/08/03 16:25:11;;;;;;;6.50;1.45;;;;;;;;;;4993044;28;20049;-60
2023/08/03 16:27:36;;;;;;;1.88;1.35;;;;;;;;;;4993340;28;20034;-60